Startpagina
METAR-TAF:

METAR-TAF

Vliegvelden :

Manta, Ecuador

breedte: 00-57S, lengte: 080-41W, hoogte: 13 m

Actueel weer

Dit bericht is 1 uur en het 0 minuten geleden gemaakt, om 04:00 UTC
Wind 12 kt uit het zuidwesten
Temperatuur 21°C
Vochtigheid 88%
Druk 1013 hPa
Zicht 10 km of meer
Gebroken wolken op 2000 ft

METAR: SEMT 260400Z 22012KT 9999 BKN020 21/19 Q1013 RMK A2992

Tijdstip: 00:00 (05:00 UTC)

Verwachting

Dit bericht is 6 uur en het 38 minuten geleden gemaakt, om 22:22 UTC
Verwachting geldig van 26 om 00 UTC tot 26 om 24 UTC
Wind 8 kt uit het zuidwesten
Zicht 10 km of meer
Gebroken wolken op 2300 ft
Tijdelijke
van 26 om 02 UTC tot 26 om 04 UTC
Verspreide wolken op 2000 ft

TAF: SEMT 252222Z 2600/2624 22008KT 9999 BKN023 TEMPO 2602/2604 SCT020 TX26/2620Z TN20/2610Z

Waarnemingen en weersverwachtingen van meer dan 4000 vliegvelden (METAR en TAF).

De beschikbare stations zijn de gele en rode punten op de kaart.

Ga met uw muis naar het station om de naam te zien.

Klik dan om waarnemingen en weersverwachtingen te zien.

kaart wijzigen: klik op de groene knoppen met een zwart kruis om in te zoomen, op de groene knop met een streepje om uit te zoomen of op de groene pijlen voor aangrenzende kaarten.


METAR-TAF: